Time;durP1;ratioP1;P1;durP2;ratioP2;P2;SDS_P1;SDS_P2;PMS_P1;PMS_P2;Temp;Humidity;BMP_temperature;BMP_pressure;BME280_temperature;BME280_humidity;BME280_pressure;Samples;Min_cycle;Max_cycle;Signal;HPM_P1;HPM_P2
2023/05/23 00:03:03;;;;;;;12.10;8.80;;;;;;;11.86;64.48;100005.85;133899;1299;22404;-73
2023/05/23 00:06:13;;;;;;;12.30;7.50;;;;;;;11.77;64.49;99998.90;133743;1301;22567;-74
2023/05/23 00:09:25;;;;;;;14.00;8.10;;;;;;;11.67;64.62;99992.42;133936;1293;22403;-74
2023/05/23 00:12:38;;;;;;;12.70;7.40;;;;;;;11.61;64.97;99990.52;133951;1300;22495;-73
2023/05/23 00:15:40;;;;;;;13.00;7.60;;;;;;;11.59;65.21;99985.98;133936;1298;22280;-73
2023/05/23 00:18:44;;;;;;;10.80;7.30;;;;;;;11.56;65.22;99985.71;133727;1301;22458;-73
2023/05/23 00:21:58;;;;;;;13.80;7.90;;;;;;;11.52;65.34;99985.27;133881;1299;22160;-74
2023/05/23 00:25:20;;;;;;;10.70;7.30;;;;;;;11.50;65.40;99983.43;133932;1300;22906;-84
2023/05/23 00:28:26;;;;;;;11.40;7.80;;;;;;;11.45;65.39;99983.98;133931;1299;23043;-73
2023/05/23 00:31:30;;;;;;;11.80;8.30;;;;;;;11.40;65.54;99984.88;133923;1303;22631;-77
2023/05/23 00:34:31;;;;;;;13.10;7.80;;;;;;;11.37;65.57;99988.78;133754;1300;22355;-73
2023/05/23 00:37:44;;;;;;;13.70;8.00;;;;;;;11.33;65.70;99990.14;133944;1291;22412;-74
2023/05/23 00:40:45;;;;;;;12.40;7.90;;;;;;;11.28;65.95;99987.67;133935;1302;22342;-74
2023/05/23 00:44:02;;;;;;;;;;;;;;;;;;;;;
2023/05/23 00:47:06;;;;;;;10.60;7.20;;;;;;;11.25;66.05;99983.61;133984;1299;22241;-73
2023/05/23 00:50:14;;;;;;;11.80;7.10;;;;;;;11.23;66.31;99980.26;133626;1302;22365;-74
2023/05/23 00:53:16;;;;;;;10.30;7.60;;;;;;;11.20;66.44;99975.38;133585;1303;22370;-81
2023/05/23 00:56:21;;;;;;;14.00;7.20;;;;;;;11.19;66.43;99976.07;133949;1299;22968;-72
2023/05/23 00:59:24;;;;;;;14.00;7.80;;;;;;;11.18;66.47;99973.52;133935;1300;22214;-75
2023/05/23 01:02:26;;;;;;;12.20;7.20;;;;;;;11.19;66.48;99973.38;133951;1300;22182;-77
2023/05/23 01:05:27;;;;;;;11.40;7.50;;;;;;;11.21;66.48;99968.80;133929;1299;22409;-73
2023/05/23 01:09:01;;;;;;;;;;;;;;;;;;;;;
2023/05/23 01:12:33;;;;;;;9.20;7.30;;;;;;;11.24;66.43;99962.30;133961;1299;22424;-72
2023/05/23 01:15:47;;;;;;;11.50;7.90;;;;;;;11.23;66.43;99958.31;133728;1301;22351;-73
2023/05/23 01:19:10;;;;;;;12.30;8.10;;;;;;;11.20;66.49;99960.69;133743;1303;22278;-81
2023/05/23 01:22:45;;;;;;;11.60;7.50;;;;;;;11.22;66.60;99957.16;133956;1300;23150;-72
2023/05/23 01:26:25;;;;;;;10.40;7.40;;;;;;;11.24;66.55;99960.71;133712;1303;22154;-75
2023/05/23 01:29:44;;;;;;;;;;;;;;;;;;;;;
2023/05/23 01:33:13;;;;;;;13.60;8.90;;;;;;;11.28;66.83;99957.55;133772;1301;22162;-73
2023/05/23 01:36:48;;;;;;;;;;;;;;;;;;;;;
2023/05/23 01:39:52;;;;;;;11.90;8.20;;;;;;;11.32;66.85;99954.31;133923;1299;22428;-75
2023/05/23 01:42:56;;;;;;;10.50;7.60;;;;;;;11.33;66.82;99957.86;133953;1300;23145;-83
2023/05/23 01:45:59;;;;;;;13.40;7.90;;;;;;;11.33;66.83;99955.57;133754;1304;22395;-83
2023/05/23 01:49:11;;;;;;;12.60;7.70;;;;;;;11.34;66.83;99952.64;133806;1302;23338;-75
2023/05/23 01:52:33;;;;;;;13.90;8.00;;;;;;;11.33;66.91;99944.38;133775;1299;22377;-73
2023/05/23 01:56:17;;;;;;;15.00;8.80;;;;;;;11.34;67.00;99941.52;133973;1300;22532;-73
2023/05/23 01:59:41;;;;;;;11.90;8.00;;;;;;;11.33;66.95;99939.44;133737;1300;23150;-72
2023/05/23 02:02:45;;;;;;;15.50;8.60;;;;;;;11.32;67.00;99939.86;133733;1301;22268;-73
2023/05/23 02:06:15;;;;;;;11.80;7.10;;;;;;;11.29;67.08;99931.61;133948;1300;22421;-73
2023/05/23 02:09:30;;;;;;;11.30;7.80;;;;;;;11.25;67.16;99929.63;134002;1300;22154;-72
2023/05/23 02:12:45;;;;;;;10.80;8.50;;;;;;;11.23;67.19;99928.17;133981;1300;22245;-74
2023/05/23 02:16:01;;;;;;;11.40;7.90;;;;;;;11.20;67.21;99929.77;133745;1300;22351;-72
2023/05/23 02:19:46;;;;;;;;;;;;;;;;;;;;;
2023/05/23 02:23:00;;;;;;;12.10;8.30;;;;;;;11.13;67.73;99926.02;133977;1300;23150;-73
2023/05/23 02:26:06;;;;;;;13.20;8.70;;;;;;;11.12;67.62;99922.70;133769;1301;23263;-73
2023/05/23 02:29:18;;;;;;;11.50;8.20;;;;;;;11.10;67.63;99922.03;133764;1298;22132;-73
2023/05/23 02:32:45;;;;;;;11.00;7.60;;;;;;;11.07;67.74;99917.32;133980;1300;22257;-72
2023/05/23 02:36:20;;;;;;;13.60;8.80;;;;;;;11.04;67.93;99916.37;133793;1299;22464;-73
2023/05/23 02:39:42;;;;;;;12.20;7.80;;;;;;;11.02;68.02;99911.63;133931;1300;23140;-78
2023/05/23 02:42:57;;;;;;;;;;;;;;;;;;;;;
2023/05/23 02:50:04;;;;;;;12.10;8.60;;;;;;;10.98;68.34;99905.00;133981;1299;22905;-73
2023/05/23 02:53:35;;;;;;;;;;;;;;;;;;;;;
2023/05/23 02:56:58;;;;;;;;;;;;;;;;;;;;;
2023/05/23 03:00:02;;;;;;;14.50;9.00;;;;;;;10.91;68.64;99896.83;133856;1300;22352;-75
2023/05/23 03:03:12;;;;;;;12.70;8.20;;;;;;;10.89;68.92;99900.23;133756;1302;22159;-75
2023/05/23 03:06:21;;;;;;;20.10;8.90;;;;;;;10.89;68.85;99899.69;133659;1299;22845;-76
2023/05/23 03:09:42;;;;;;;11.80;9.10;;;;;;;10.90;68.94;99901.16;133978;1300;23127;-72
2023/05/23 03:12:46;;;;;;;12.60;8.50;;;;;;;10.93;68.86;99899.38;133965;1299;22430;-73
2023/05/23 03:16:00;;;;;;;14.30;8.80;;;;;;;10.97;68.97;99899.98;133708;1300;22378;-72
2023/05/23 03:19:15;;;;;;;14.10;9.50;;;;;;;11.04;69.11;99899.25;133706;1300;22362;-77
2023/05/23 03:22:50;;;;;;;;;;;;;;;;;;;;;
2023/05/23 03:26:09;;;;;;;;;;;;;;;;;;;;;
2023/05/23 03:30:01;;;;;;;13.70;8.60;;;;;;;11.24;69.17;99895.33;133973;1299;22579;-77
2023/05/23 03:33:35;;;;;;;13.90;9.30;;;;;;;11.37;69.05;99890.77;133937;1301;23249;-73
2023/05/23 03:36:44;;;;;;;16.60;8.20;;;;;;;11.53;69.15;99890.88;133790;1300;23119;-72
2023/05/23 03:40:26;;;;;;;;;;;;;;;;;;;;;
2023/05/23 03:43:59;;;;;;;;;;;;;;;;;;;;;
2023/05/23 03:47:27;;;;;;;;;;;;;;;;;;;;;
2023/05/23 03:51:23;;;;;;;;;;;;;;;;;;;;;
2023/05/23 03:54:53;;;;;;;;;;;;;;;;;;;;;
2023/05/23 03:57:57;;;;;;;14.20;9.10;;;;;;;12.89;68.00;99872.77;133995;1300;22357;-73
2023/05/23 04:05:41;;;;;;;13.40;8.40;;;;;;;13.46;67.54;99872.91;133860;1300;22193;-73
2023/05/23 04:09:18;;;;;;;13.20;9.20;;;;;;;13.51;66.91;99870.10;134002;1298;22210;-76
2023/05/23 04:13:10;;;;;;;;;;;;;;;;;;;;;
2023/05/23 04:17:37;;;;;;;11.80;9.10;;;;;;;13.42;66.79;99864.15;133975;1299;23064;-76
2023/05/23 04:20:44;;;;;;;16.20;9.10;;;;;;;13.70;66.84;99857.45;133932;1299;22410;-84
2023/05/23 04:24:10;;;;;;;13.50;8.80;;;;;;;14.02;66.44;99850.67;133805;1302;22235;-86
2023/05/23 04:27:43;;;;;;;15.10;9.10;;;;;;;14.36;66.05;99846.58;133563;1303;22973;-76
2023/05/23 04:31:07;;;;;;;11.70;8.80;;;;;;;14.61;65.65;99845.73;134054;1299;22373;-79
2023/05/23 04:39:06;;;;;;;;;;;;;;;;;;;;;
2023/05/23 04:43:23;;;;;;;;;;;;;;;;;;;;;
2023/05/23 04:46:55;;;;;;;;;;;;;;;;;;;;;
2023/05/23 04:50:22;;;;;;;13.90;8.90;;;;;;;14.90;63.88;99846.28;133949;1300;22389;-76
2023/05/23 04:53:56;;;;;;;13.60;8.70;;;;;;;15.00;63.90;99838.50;133752;1298;22307;-76
2023/05/23 04:57:48;;;;;;;12.50;9.20;;;;;;;15.14;63.82;99837.18;133788;1301;22177;-76
2023/05/23 05:05:34;;;;;;;13.80;8.50;;;;;;;15.70;63.55;99830.46;133757;1300;22492;-77
2023/05/23 05:13:39;;;;;;;;;;;;;;;;;;;;;
2023/05/23 05:18:10;;;;;;;15.80;8.30;;;;;;;17.02;62.00;99821.96;133875;1300;22380;-76
2023/05/23 05:22:04;;;;;;;;;;;;;;;;;;;;;
2023/05/23 05:25:26;;;;;;;11.30;8.20;;;;;;;17.64;60.72;99819.84;133717;1301;22406;-77
2023/05/23 05:29:08;;;;;;;;;;;;;;;;;;;;;
2023/05/23 05:36:58;;;;;;;;;;;;;;;;;;;;;
2023/05/23 05:40:41;;;;;;;10.80;8.10;;;;;;;19.08;58.55;99804.79;133855;1299;23245;-77
2023/05/23 05:57:18;;;;;;;12.50;7.70;;;;;;;20.07;56.12;99794.92;133768;1299;22367;-77
2023/05/23 06:01:14;;;;;;;;;;;;;;;;;;;;;
2023/05/23 06:09:11;;;;;;;;;;;;;;;;;;;;;
2023/05/23 06:21:47;;;;;;;;;;;;;;;;;;;;;
2023/05/23 06:25:53;;;;;;;;;;;;;;;;;;;;;
2023/05/23 06:34:47;;;;;;;;;;;;;;;;;;;;;
2023/05/23 06:39:13;;;;;;;8.90;6.30;;;;;;;21.37;49.21;99787.23;133886;1301;22870;-76
2023/05/23 06:42:44;;;;;;;7.80;5.60;;;;;;;21.64;48.53;99785.05;133653;1300;22259;-76
2023/05/23 06:47:11;;;;;;;;;;;;;;;;;;;;;
2023/05/23 06:55:35;;;;;;;10.20;7.00;;;;;;;22.57;48.31;99772.16;133861;1302;22373;-77
2023/05/23 07:03:40;;;;;;;;;;;;;;;;;;;;;
2023/05/23 07:11:39;;;;;;;;;;;;;;;;;;;;;
2023/05/23 07:16:06;;;;;;;7.80;6.20;;;;;;;22.34;46.66;99763.21;133871;1300;23670;-76
2023/05/23 07:23:43;;;;;;;7.30;5.60;;;;;;;22.58;46.68;99762.83;133645;1299;22268;-76
2023/05/23 07:36:18;;;;;;;;;;;;;;;;;;;;;
2023/05/23 07:40:18;;;;;;;15.40;6.50;;;;;;;24.42;44.85;99744.19;133559;1301;22375;-78
2023/05/23 07:48:32;;;;;;;;;;;;;;;;;;;;;
2023/05/23 07:57:16;;;;;;;;;;;;;;;;;;;;;
2023/05/23 08:01:27;;;;;;;;;;;;;;;;;;;;;
2023/05/23 08:06:05;;;;;;;9.70;5.50;;;;;;;24.15;42.91;99721.58;133552;1300;22400;-76
2023/05/23 08:09:24;;;;;;;;;;;;;;;;;;;;;
2023/05/23 08:13:54;;;;;;;9.90;5.30;;;;;;;24.19;43.74;99722.85;133854;1299;22203;-76
2023/05/23 08:25:46;;;;;;;;;;;;;;;;;;;;;
2023/05/23 08:29:42;;;;;;;;;;;;;;;;;;;;;
2023/05/23 08:38:18;;;;;;;;;;;;;;;;;;;;;
2023/05/23 08:46:05;;;;;;;8.70;4.80;;;;;;;23.07;42.22;99709.96;133419;1301;23242;-77
2023/05/23 08:54:18;;;;;;;7.70;5.10;;;;;;;23.14;42.98;99713.90;133609;1301;22436;-77
2023/05/23 08:58:00;;;;;;;;;;;;;;;;;;;;;
2023/05/23 09:01:59;;;;;;;6.90;4.70;;;;;;;23.94;41.23;99722.59;133802;1300;22261;-76
2023/05/23 09:06:17;;;;;;;;;;;;;;;;;;;;;
2023/05/23 09:27:10;;;;;;;7.80;4.70;;;;;;;22.98;40.99;99738.45;133176;1304;22468;-75
2023/05/23 09:35:45;;;;;;;;;;;;;;;;;;;;;
2023/05/23 09:52:02;;;;;;;8.40;5.00;;;;;;;22.40;42.10;99736.09;133629;1300;22240;-76
2023/05/23 09:55:54;;;;;;;;;;;;;;;;;;;;;
2023/05/23 09:59:59;;;;;;;11.80;6.40;;;;;;;22.10;43.72;99745.82;133612;1300;22215;-75
2023/05/23 10:08:26;;;;;;;;;;;;;;;;;;;;;
2023/05/23 10:12:50;;;;;;;10.50;6.00;;;;;;;21.12;47.54;99770.35;133748;1301;22585;-76
2023/05/23 10:16:20;;;;;;;6.90;4.70;;;;;;;20.72;48.38;99778.70;133677;1304;22536;-76
2023/05/23 10:19:49;;;;;;;;;;;;;;;;;;;;;
2023/05/23 10:27:05;;;;;;;8.50;4.70;;;;;;;20.21;50.31;99794.34;133775;1307;23135;-76
2023/05/23 10:30:32;;;;;;;11.60;4.50;;;;;;;19.82;50.16;99792.09;133896;1299;22381;-76
2023/05/23 10:38:33;;;;;;;8.30;4.70;;;;;;;19.42;51.51;99800.58;133687;1304;22353;-75
2023/05/23 10:42:14;;;;;;;10.90;4.90;;;;;;;19.39;53.51;99798.94;133912;1300;22346;-76
2023/05/23 10:45:50;;;;;;;13.40;6.20;;;;;;;19.38;54.74;99796.02;133737;1306;22346;-76
2023/05/23 10:49:22;;;;;;;9.70;7.10;;;;;;;19.36;55.45;99795.42;133849;1301;22393;-75
2023/05/23 10:52:53;;;;;;;13.20;8.60;;;;;;;19.35;56.15;99799.11;133889;1300;23171;-76
2023/05/23 10:56:30;;;;;;;11.60;9.40;;;;;;;19.31;56.98;99800.30;133917;1300;22411;-76
2023/05/23 10:59:41;;;;;;;13.30;9.30;;;;;;;19.25;57.94;99800.80;133711;1300;22253;-77
2023/05/23 11:03:20;;;;;;;20.90;10.30;;;;;;;19.25;58.68;99802.47;133899;1299;22383;-77
2023/05/23 11:11:32;;;;;;;;;;;;;;;;;;;;;
2023/05/23 11:15:13;;;;;;;14.80;9.30;;;;;;;19.04;60.09;99789.30;133864;1300;23303;-76
2023/05/23 11:19:21;;;;;;;16.10;9.80;;;;;;;19.11;60.26;99792.27;133874;1298;23268;-76
2023/05/23 11:23:05;;;;;;;;;;;;;;;;;;;;;
2023/05/23 11:27:40;;;;;;;14.40;11.30;;;;;;;19.28;59.93;99791.05;133886;1301;22368;-76
2023/05/23 11:35:38;;;;;;;;;;;;;;;;;;;;;
2023/05/23 11:39:21;;;;;;;15.60;11.70;;;;;;;18.95;62.65;99778.77;133673;1301;22409;-76
2023/05/23 11:43:21;;;;;;;;;;;;;;;;;;;;;
2023/05/23 11:47:17;;;;;;;;;;;;;;;;;;;;;
2023/05/23 11:51:28;;;;;;;;;;;;;;;;;;;;;
2023/05/23 11:55:15;;;;;;;15.70;13.70;;;;;;;19.11;64.06;99776.30;133791;1300;22172;-76
2023/05/23 11:59:01;;;;;;;;;;;;;;;;;;;;;
2023/05/23 12:03:05;;;;;;;18.10;13.50;;;;;;;19.33;64.60;99773.67;133857;1298;22401;-75
2023/05/23 12:15:11;;;;;;;18.20;13.50;;;;;;;19.69;64.57;99762.59;133830;1301;22340;-79
2023/05/23 12:18:21;;;;;;;17.20;13.50;;;;;;;19.85;64.33;99763.70;133923;1301;23003;-78
2023/05/23 12:27:17;;;;;;;14.80;12.40;;;;;;;20.30;63.80;99760.36;133572;1299;22439;-78
2023/05/23 12:30:24;;;;;;;17.30;11.90;;;;;;;20.51;63.59;99763.02;133785;1299;23135;-78
2023/05/23 12:34:06;;;;;;;17.10;12.20;;;;;;;20.71;63.52;99766.45;133924;1299;22474;-78
2023/05/23 12:38:36;;;;;;;19.40;13.40;;;;;;;20.90;63.11;99765.83;133923;1299;23207;-78
2023/05/23 12:50:00;;;;;;;;;;;;;;;;;;;;;
2023/05/23 12:58:33;;;;;;;;;;;;;;;;;;;;;
2023/05/23 13:02:45;;;;;;;;;;;;;;;;;;;;;
2023/05/23 13:06:36;;;;;;;;;;;;;;;;;;;;;
2023/05/23 13:11:08;;;;;;;;;;;;;;;;;;;;;
2023/05/23 13:15:25;;;;;;;;;;;;;;;;;;;;;
2023/05/23 13:18:53;;;;;;;15.10;9.30;;;;;;;21.03;60.91;99742.05;133815;1301;22387;-78
2023/05/23 13:35:21;;;;;;;;;;;;;;;;;;;;;
2023/05/23 13:39:19;;;;;;;10.10;9.00;;;;;;;20.42;61.38;99732.58;133678;1301;22226;-80
2023/05/23 13:47:41;;;;;;;14.20;10.10;;;;;;;20.58;61.49;99728.00;133672;1301;22365;-80
2023/05/23 13:56:09;;;;;;;;;;;;;;;;;;;;;
2023/05/23 14:08:18;;;;;;;;;;;;;;;;;;;;;
2023/05/23 14:12:53;;;;;;;16.60;10.80;;;;;;;20.94;61.92;99735.38;133747;1300;23058;-77
2023/05/23 14:20:35;;;;;;;;;;;;;;;;;;;;;
2023/05/23 14:25:01;;;;;;;12.40;10.50;;;;;;;21.16;61.31;99729.52;133778;1302;23572;-77
2023/05/23 14:28:48;;;;;;;;;;;;;;;;;;;;;
2023/05/23 14:37:21;;;;;;;15.10;9.90;;;;;;;21.40;60.63;99734.17;133688;1305;22249;-77
2023/05/23 14:54:12;;;;;;;;;;;;;;;;;;;;;
2023/05/23 14:58:34;;;;;;;15.80;9.00;;;;;;;21.45;59.86;99723.73;133943;1302;22173;-82
2023/05/23 15:19:46;;;;;;;;;;;;;;;;;;;;;
2023/05/23 15:24:34;;;;;;;12.70;8.30;;;;;;;21.57;59.81;99720.39;133943;1300;22448;-78
2023/05/23 15:32:48;;;;;;;11.50;8.90;;;;;;;21.39;60.07;99717.16;133595;1305;22372;-77
2023/05/23 15:37:11;;;;;;;14.30;9.30;;;;;;;21.36;60.25;99722.60;133684;1300;22429;-77
2023/05/23 15:41:33;;;;;;;9.70;8.10;;;;;;;21.38;60.53;99715.80;133810;1300;22359;-78
2023/05/23 15:44:37;;;;;;;19.50;9.50;;;;;;;21.45;60.40;99709.43;133848;1300;23275;-82
2023/05/23 15:57:23;;;;;;;;;;;;;;;;;;;;;
2023/05/23 16:09:31;;;;;;;11.10;8.10;;;;;;;21.56;59.82;99687.27;133749;1301;22381;-77
2023/05/23 16:17:49;;;;;;;;;;;;;;;;;;;;;
2023/05/23 16:31:02;;;;;;;9.80;8.00;;;;;;;21.15;59.13;99700.90;133920;1301;22382;-77
2023/05/23 16:35:01;;;;;;;14.00;9.20;;;;;;;20.95;59.38;99705.73;133849;1298;22385;-77
2023/05/23 16:43:28;;;;;;;11.00;9.00;;;;;;;20.74;60.21;99691.77;133690;1306;23075;-84
2023/05/23 16:47:39;;;;;;;9.10;7.70;;;;;;;20.61;60.39;99684.02;133705;1299;23248;-80
2023/05/23 16:51:00;;;;;;;14.20;8.80;;;;;;;20.47;60.86;99683.31;133738;1300;22574;-82
2023/05/23 17:08:03;;;;;;;;;;;;;;;;;;;;;
2023/05/23 17:11:55;;;;;;;18.90;13.10;;;;;;;20.34;62.07;99680.86;133941;1300;23170;-81
2023/05/23 17:15:55;;;;;;;20.20;11.10;;;;;;;20.38;61.84;99685.30;133925;1301;23197;-78
2023/05/23 17:19:54;;;;;;;18.40;11.20;;;;;;;20.40;61.86;99691.95;133916;1298;22399;-77
2023/05/23 17:24:40;;;;;;;15.20;10.60;;;;;;;20.40;61.90;99698.80;133947;1300;22391;-79
2023/05/23 17:28:08;;;;;;;15.20;8.70;;;;;;;20.38;61.84;99704.83;133658;1301;22590;-79
2023/05/23 17:32:21;;;;;;;;;;;;;;;;;;;;;
2023/05/23 17:35:57;;;;;;;;;;;;;;;;;;;;;
2023/05/23 17:39:26;;;;;;;23.80;17.20;;;;;;;20.23;61.82;99721.65;133687;1301;22234;-78
2023/05/23 17:43:18;;;;;;;29.00;20.90;;;;;;;20.11;61.95;99724.65;133614;1300;22385;-79
2023/05/23 17:46:45;;;;;;;33.30;20.90;;;;;;;19.99;62.20;99725.70;133919;1299;22562;-79
2023/05/23 17:54:03;;;;;;;24.50;15.80;;;;;;;19.77;62.67;99726.63;133895;1299;22438;-79
2023/05/23 17:57:10;;;;;;;27.80;18.70;;;;;;;19.68;62.91;99726.29;133857;1299;22864;-79
2023/05/23 18:00:23;;;;;;;43.00;25.90;;;;;;;19.61;62.89;99725.56;133887;1301;22557;-78
2023/05/23 18:03:44;;;;;;;42.60;30.00;;;;;;;19.49;63.02;99732.55;133552;1301;22950;-79
2023/05/23 18:07:20;;;;;;;;;;;;;;;;;;;;;
2023/05/23 18:11:37;;;;;;;29.00;16.30;;;;;;;19.31;63.13;99744.15;133690;1300;23094;-79
2023/05/23 18:15:38;;;;;;;;;;;;;;;;;;;;;
2023/05/23 18:19:02;;;;;;;40.50;16.00;;;;;;;19.01;63.29;99750.71;133921;1299;22234;-80
2023/05/23 18:22:09;;;;;;;21.50;9.80;;;;;;;18.84;63.46;99757.92;133903;1301;23210;-79
2023/05/23 18:25:58;;;;;;;13.10;8.70;;;;;;;18.72;63.65;99761.80;133803;1299;22420;-79
2023/05/23 18:29:52;;;;;;;15.00;9.50;;;;;;;18.59;63.91;99766.64;134009;1299;22356;-79
2023/05/23 18:33:15;;;;;;;16.10;11.00;;;;;;;18.48;64.25;99775.23;134014;1298;22418;-79
2023/05/23 18:40:41;;;;;;;18.70;13.50;;;;;;;18.29;64.84;99779.75;133802;1299;22216;-78
2023/05/23 18:52:30;;;;;;;25.40;13.80;;;;;;;17.91;67.11;99803.71;133758;1300;23163;-79
2023/05/23 18:55:49;;;;;;;;;;;;;;;;;;;;;
2023/05/23 18:59:16;;;;;;;14.30;10.90;;;;;;;17.70;68.24;99814.64;134094;1299;23125;-78
2023/05/23 19:14:39;;;;;;;24.40;15.50;;;;;;;17.28;70.38;99833.55;133933;1298;22415;-80
2023/05/23 19:18:41;;;;;;;19.10;13.40;;;;;;;17.21;70.82;99838.17;134033;1298;22535;-79
2023/05/23 19:22:48;;;;;;;;;;;;;;;;;;;;;
2023/05/23 19:27:03;;;;;;;15.70;12.30;;;;;;;17.10;71.77;99848.63;133818;1300;22246;-79
2023/05/23 19:30:42;;;;;;;14.30;12.40;;;;;;;17.01;72.50;99850.45;134063;1299;23204;-79
2023/05/23 19:38:32;;;;;;;;;;;;;;;;;;;;;
2023/05/23 19:41:40;;;;;;;17.10;12.70;;;;;;;16.89;73.16;99858.29;133959;1298;22448;-79
2023/05/23 19:45:42;;;;;;;19.70;12.30;;;;;;;16.86;73.21;99857.27;133867;1298;22421;-79
2023/05/23 19:49:28;;;;;;;;;;;;;;;;;;;;;
2023/05/23 19:53:32;;;;;;;;;;;;;;;;;;;;;
2023/05/23 20:01:32;;;;;;;;;;;;;;;;;;;;;
2023/05/23 20:05:10;;;;;;;14.60;10.90;;;;;;;16.77;74.31;99862.34;133785;1300;22378;-84
2023/05/23 20:08:44;;;;;;;;;;;;;;;;;;;;;
2023/05/23 20:11:54;;;;;;;13.40;10.50;;;;;;;16.72;74.62;99863.16;133733;1303;22368;-82
2023/05/23 20:15:05;;;;;;;11.00;9.90;;;;;;;16.69;74.75;99865.94;133737;1299;23094;-83
2023/05/23 20:18:08;;;;;;;12.00;9.60;;;;;;;16.67;74.88;99870.10;133784;1300;22376;-86
2023/05/23 20:21:10;;;;;;;9.70;8.70;;;;;;;16.64;75.00;99873.05;133967;1306;22175;-80
2023/05/23 20:24:45;;;;;;;;;;;;;;;;;;;;;
2023/05/23 20:28:00;;;;;;;11.90;8.30;;;;;;;16.55;75.13;99880.45;133943;1301;22464;-85
2023/05/23 20:31:37;;;;;;;11.10;8.50;;;;;;;16.51;75.30;99882.81;133897;1301;22438;-85
2023/05/23 20:35:21;;;;;;;;;;;;;;;;;;;;;
2023/05/23 20:47:12;;;;;;;10.30;8.60;;;;;;;16.31;76.21;99897.73;133690;1299;22474;-84
2023/05/23 20:51:22;;;;;;;;;;;;;;;;;;;;;
2023/05/23 20:55:29;;;;;;;;;;;;;;;;;;;;;
2023/05/23 20:59:13;;;;;;;;;;;;;;;;;;;;;
2023/05/23 21:02:46;;;;;;;11.50;9.70;;;;;;;15.99;77.49;99903.42;133945;1300;23243;-85
2023/05/23 21:07:22;;;;;;;13.30;10.60;;;;;;;15.94;77.70;99906.16;133924;1299;22350;-84
2023/05/23 21:19:15;;;;;;;;;;;;;;;;;;;;;
2023/05/23 21:27:35;;;;;;;;;;;;;;;;;;;;;
2023/05/23 21:31:46;;;;;;;14.40;11.50;;;;;;;15.76;78.96;99923.64;133715;1301;22236;-82
2023/05/23 21:36:14;;;;;;;13.20;10.90;;;;;;;15.76;79.12;99931.95;133636;1300;23627;-84
2023/05/23 21:47:23;;;;;;;13.00;11.40;;;;;;;15.74;79.36;99947.17;133952;1299;22563;-82
2023/05/23 21:51:43;;;;;;;;;;;;;;;;;;;;;
2023/05/23 21:56:04;;;;;;;15.00;11.30;;;;;;;15.74;79.43;99950.59;133608;1300;22874;-83
2023/05/23 21:59:43;;;;;;;15.00;12.90;;;;;;;15.74;79.61;99950.30;133918;1300;22395;-85
2023/05/23 22:03:39;;;;;;;;;;;;;;;;;;;;;
2023/05/23 22:19:50;;;;;;;13.60;12.30;;;;;;;15.54;80.45;99963.20;133807;1300;22137;-82
2023/05/23 22:24:18;;;;;;;16.30;12.30;;;;;;;15.51;80.59;99963.20;133932;1300;22257;-85
2023/05/23 22:32:39;;;;;;;15.20;13.20;;;;;;;15.49;81.01;99967.31;133614;1305;22358;-86
2023/05/23 22:36:35;;;;;;;;;;;;;;;;;;;;;
2023/05/23 22:40:22;;;;;;;;;;;;;;;;;;;;;
2023/05/23 22:44:32;;;;;;;15.80;14.10;;;;;;;15.49;81.45;99958.36;133920;1300;22236;-84
2023/05/23 22:48:59;;;;;;;;;;;;;;;;;;;;;
2023/05/23 23:05:52;;;;;;;24.10;16.90;;;;;;;15.37;82.37;99966.92;133777;1300;23160;-84
2023/05/23 23:13:51;;;;;;;21.80;16.70;;;;;;;15.35;82.69;99966.25;133893;1299;22222;-84
2023/05/23 23:21:42;;;;;;;20.00;17.70;;;;;;;15.30;83.05;99969.86;133723;1300;22401;-84
2023/05/23 23:25:29;;;;;;;;;;;;;;;;;;;;;
2023/05/23 23:33:41;;;;;;;22.50;18.30;;;;;;;15.23;83.57;99967.98;133727;1306;22433;-86
2023/05/23 23:41:41;;;;;;;;;;;;;;;;;;;;;
2023/05/23 23:50:03;;;;;;;22.90;19.80;;;;;;;15.12;83.72;99967.95;133732;1301;23033;-85
